Time;durP1;ratioP1;P1;durP2;ratioP2;P2;SDS_P1;SDS_P2;PMS_P1;PMS_P2;Temp;Humidity;BMP_temperature;BMP_pressure;BME280_temperature;BME280_humidity;BME280_pressure;Samples;Min_cycle;Max_cycle;Signal;HPM_P1;HPM_P2
2022/03/09 00:00:50;;;;;;;7.32;5.32;;;;;;;3.61;44.15;101549.59;5012709;27;20346;-70
2022/03/09 00:03:16;;;;;;;7.25;5.63;;;;;;;3.57;44.68;101546.25;5003045;27;20971;-71
2022/03/09 00:05:41;;;;;;;5.82;5.30;;;;;;;3.49;44.81;101553.59;5034722;27;20077;-71
2022/03/09 00:08:06;;;;;;;5.85;5.25;;;;;;;3.65;45.49;101548.47;5015779;27;21050;-71
2022/03/09 00:10:32;;;;;;;5.85;5.35;;;;;;;3.55;45.48;101549.84;4978590;27;20172;-70
2022/03/09 00:12:57;;;;;;;6.10;5.05;;;;;;;3.58;45.29;101552.31;5039381;27;20036;-69
2022/03/09 00:15:23;;;;;;;5.90;5.40;;;;;;;3.41;44.99;101553.09;4977841;27;20021;-71
2022/03/09 00:17:48;;;;;;;6.85;5.20;;;;;;;3.50;45.58;101562.28;5030007;27;20048;-70
2022/03/09 00:20:13;;;;;;;6.13;5.50;;;;;;;3.38;46.06;101556.69;5014037;27;20498;-70
2022/03/09 00:22:39;;;;;;;5.93;5.32;;;;;;;3.24;46.25;101556.47;5012449;27;20040;-70
2022/03/09 00:25:04;;;;;;;6.18;5.55;;;;;;;3.48;45.66;101558.91;5013721;27;20045;-70
2022/03/09 00:27:31;;;;;;;8.75;5.38;;;;;;;3.30;46.24;101564.06;4996520;27;20036;-71
2022/03/09 00:29:56;;;;;;;6.10;5.50;;;;;;;3.25;46.26;101569.50;5017348;27;20242;-70
2022/03/09 00:32:22;;;;;;;7.47;5.50;;;;;;;3.13;46.47;101579.66;4977925;27;20499;-70
2022/03/09 00:34:47;;;;;;;5.97;5.38;;;;;;;3.15;46.08;101578.66;4990713;27;20037;-69
2022/03/09 00:37:12;;;;;;;5.75;5.25;;;;;;;3.09;46.34;101581.56;5012457;27;20025;-70
2022/03/09 00:39:38;;;;;;;5.32;4.93;;;;;;;3.05;46.49;101585.25;5029288;27;20029;-72
2022/03/09 00:42:03;;;;;;;5.75;5.18;;;;;;;2.95;46.83;101586.53;5008463;27;20021;-71
2022/03/09 00:44:29;;;;;;;7.35;5.07;;;;;;;2.88;47.08;101594.66;4999202;27;20052;-71
2022/03/09 00:46:54;;;;;;;5.90;5.00;;;;;;;2.69;47.83;101598.97;5016942;27;20024;-70
2022/03/09 00:49:20;;;;;;;6.38;5.38;;;;;;;2.65;47.64;101593.03;4998579;27;20024;-70
2022/03/09 00:51:45;;;;;;;6.65;5.20;;;;;;;2.50;48.03;101591.91;5030500;27;20089;-70
2022/03/09 00:54:11;;;;;;;5.85;5.25;;;;;;;2.56;48.04;101596.84;5038904;27;20027;-70
2022/03/09 00:56:36;;;;;;;7.38;5.30;;;;;;;2.56;48.53;101594.25;5032689;27;20020;-70
2022/03/09 00:59:01;;;;;;;5.88;5.13;;;;;;;2.62;47.93;101598.38;5017342;27;20028;-70
2022/03/09 01:01:27;;;;;;;7.20;5.38;;;;;;;2.55;48.76;101596.91;4995411;27;20029;-70
2022/03/09 01:03:52;;;;;;;6.05;5.07;;;;;;;2.60;48.06;101597.59;5002394;27;20032;-70
2022/03/09 01:06:17;;;;;;;5.82;5.22;;;;;;;2.56;48.58;101603.84;5011774;27;20683;-71
2022/03/09 01:08:43;;;;;;;6.30;5.25;;;;;;;2.29;48.71;101598.84;5039564;27;20021;-70
2022/03/09 01:11:09;;;;;;;6.05;5.40;;;;;;;2.27;49.54;101600.69;4968041;27;20201;-70
2022/03/09 01:13:35;;;;;;;5.32;4.88;;;;;;;2.22;50.00;101600.00;4997877;27;20198;-70
2022/03/09 01:16:00;;;;;;;5.57;5.05;;;;;;;2.13;50.43;101595.16;4985519;27;20017;-70
2022/03/09 01:18:25;;;;;;;5.70;5.20;;;;;;;2.00;50.23;101594.78;5004531;27;20077;-70
2022/03/09 01:20:51;;;;;;;5.95;5.35;;;;;;;2.10;50.10;101597.88;5034889;27;20029;-70
2022/03/09 01:23:16;;;;;;;5.60;5.10;;;;;;;1.96;50.44;101593.19;4999783;27;20422;-69
2022/03/09 01:25:42;;;;;;;6.25;5.40;;;;;;;2.01;50.30;101591.28;5037155;27;20029;-70
2022/03/09 01:28:07;;;;;;;7.00;5.53;;;;;;;2.01;50.02;101592.13;5013055;27;20113;-69
2022/03/09 01:30:32;;;;;;;5.93;5.28;;;;;;;1.98;49.88;101587.03;5013134;27;20029;-70
2022/03/09 01:32:58;;;;;;;5.55;5.05;;;;;;;2.03;49.99;101592.91;4990112;27;20029;-69
2022/03/09 01:35:23;;;;;;;5.68;5.07;;;;;;;2.16;49.48;101587.22;5016472;27;20036;-72
2022/03/09 01:37:48;;;;;;;5.72;5.22;;;;;;;2.00;49.76;101587.81;4991775;27;20017;-69
2022/03/09 01:40:14;;;;;;;7.38;4.97;;;;;;;2.01;50.21;101586.06;4984357;27;20129;-71
2022/03/09 01:42:39;;;;;;;5.80;5.30;;;;;;;1.91;51.09;101579.50;5015210;27;20397;-69
2022/03/09 01:45:07;;;;;;;5.85;5.35;;;;;;;1.80;51.29;101569.47;5004177;27;20049;-69
2022/03/09 01:47:32;;;;;;;5.78;5.28;;;;;;;1.76;51.43;101568.72;5004109;28;20859;-70
2022/03/09 01:49:58;;;;;;;6.05;5.00;;;;;;;1.69;52.26;101564.66;4997298;28;20089;-70
2022/03/09 01:52:23;;;;;;;12.20;5.47;;;;;;;1.71;51.65;101565.47;4985483;27;20028;-72
2022/03/09 01:54:50;;;;;;;6.40;5.00;;;;;;;1.74;50.96;101564.50;5010824;27;20957;-70
2022/03/09 01:57:16;;;;;;;6.35;5.10;;;;;;;1.80;49.84;101559.03;5025328;27;20040;-71
2022/03/09 01:59:41;;;;;;;6.40;5.32;;;;;;;1.99;48.32;101569.59;5008034;27;20021;-70
2022/03/09 02:02:06;;;;;;;7.32;4.75;;;;;;;2.13;47.70;101569.03;4999081;27;20021;-70
2022/03/09 02:04:32;;;;;;;5.60;5.10;;;;;;;2.29;46.94;101562.28;5001687;27;20056;-70
2022/03/09 02:06:57;;;;;;;5.85;4.68;;;;;;;2.52;46.89;101555.25;5025003;27;20330;-69
2022/03/09 02:12:08;;;;;;;6.05;4.80;;;;;;;2.50;46.69;101554.47;5015187;27;20036;-71
2022/03/09 02:14:38;;;;;;;6.78;5.05;;;;;;;2.52;46.06;101556.09;5029568;27;20040;-71
2022/03/09 02:17:05;;;;;;;5.32;4.82;;;;;;;2.55;45.97;101549.88;5029223;27;20105;-71
2022/03/09 02:19:31;;;;;;;6.47;5.20;;;;;;;2.62;45.90;101561.78;4997225;27;20052;-71
2022/03/09 02:22:05;;;;;;;5.72;4.80;;;;;;;2.65;45.50;101564.28;5011555;27;20596;-71
2022/03/09 02:24:32;;;;;;;5.68;5.18;;;;;;;2.80;44.94;101567.16;5033682;27;20049;-70
2022/03/09 02:26:57;;;;;;;9.05;4.90;;;;;;;2.82;44.83;101570.53;5031703;27;20016;-70
2022/03/09 02:29:22;;;;;;;5.03;4.63;;;;;;;2.83;44.85;101557.41;5033551;27;20136;-71
2022/03/09 02:31:48;;;;;;;6.40;5.43;;;;;;;2.92;45.35;101569.25;5016062;27;20031;-69
2022/03/09 02:34:13;;;;;;;5.63;5.00;;;;;;;2.82;45.64;101568.78;5037488;27;20021;-69
2022/03/09 02:36:39;;;;;;;5.72;5.13;;;;;;;2.86;44.93;101569.50;5036617;27;20098;-70
2022/03/09 02:39:04;;;;;;;5.07;4.65;;;;;;;2.79;45.42;101571.50;5055686;27;20033;-70
2022/03/09 02:41:33;;;;;;;6.70;5.30;;;;;;;2.85;44.75;101565.16;5025835;27;20021;-70
2022/03/09 02:44:02;;;;;;;5.90;4.50;;;;;;;2.87;44.84;101555.50;5021390;27;20602;-70
2022/03/09 02:46:27;;;;;;;6.20;5.32;;;;;;;2.83;45.89;101561.78;4986943;27;20065;-69
2022/03/09 02:48:53;;;;;;;6.35;5.35;;;;;;;2.74;46.09;101574.34;5015997;27;20030;-70
2022/03/09 02:51:18;;;;;;;6.07;5.25;;;;;;;2.77;45.38;101562.06;5017907;27;20063;-70
2022/03/09 02:53:43;;;;;;;6.43;5.45;;;;;;;2.89;45.48;101561.50;5016253;27;20140;-69
2022/03/09 02:56:09;;;;;;;5.47;4.95;;;;;;;2.80;45.67;101564.53;5017774;27;20168;-70
2022/03/09 02:58:34;;;;;;;6.88;4.93;;;;;;;2.75;45.15;101562.97;5015209;27;20028;-71
2022/03/09 03:01:00;;;;;;;6.18;5.00;;;;;;;2.69;45.68;101549.31;5011687;27;20029;-70
2022/03/09 03:03:25;;;;;;;5.78;4.93;;;;;;;2.73;45.95;101551.72;5020344;27;21176;-69
2022/03/09 03:05:50;;;;;;;5.28;4.70;;;;;;;2.65;46.37;101548.59;5016840;27;20049;-70
2022/03/09 03:08:16;;;;;;;6.63;5.22;;;;;;;2.73;46.47;101556.09;4999800;27;20875;-71
2022/03/09 03:10:41;;;;;;;6.40;5.30;;;;;;;2.60;46.90;101550.56;5008496;27;20032;-70
2022/03/09 03:13:07;;;;;;;5.93;4.97;;;;;;;2.57;46.96;101545.47;5018798;27;21408;-70
2022/03/09 03:15:32;;;;;;;8.00;5.43;;;;;;;2.49;47.29;101556.22;4997683;27;20021;-70
2022/03/09 03:17:57;;;;;;;5.75;5.25;;;;;;;2.52;46.95;101557.88;5020053;27;20104;-70
2022/03/09 03:20:23;;;;;;;6.60;5.10;;;;;;;2.55;46.85;101557.72;5011962;27;20033;-70
2022/03/09 03:22:48;;;;;;;6.95;5.05;;;;;;;2.48;46.63;101553.69;5016974;27;20028;-69
2022/03/09 03:25:14;;;;;;;5.60;5.10;;;;;;;2.51;46.42;101545.72;4997918;27;20293;-70
2022/03/09 03:27:39;;;;;;;5.88;5.28;;;;;;;2.42;46.47;101548.72;5013819;27;20033;-70
2022/03/09 03:30:05;;;;;;;6.78;5.10;;;;;;;2.49;46.68;101553.63;5002569;27;20679;-70
2022/03/09 03:32:30;;;;;;;8.45;5.10;;;;;;;2.51;46.82;101548.31;4995166;27;20056;-70
2022/03/09 03:34:56;;;;;;;7.82;5.25;;;;;;;2.36;46.37;101540.22;5000252;27;20021;-70
2022/03/09 03:37:21;;;;;;;7.10;5.00;;;;;;;2.33;47.09;101542.13;4998536;27;21058;-69
2022/03/09 03:39:46;;;;;;;6.68;5.35;;;;;;;2.44;46.80;101549.50;5016144;27;20033;-70
2022/03/09 03:42:12;;;;;;;5.88;5.32;;;;;;;2.44;46.53;101546.88;4994388;27;20017;-70
2022/03/09 03:44:37;;;;;;;5.88;5.18;;;;;;;2.27;47.40;101539.75;5016224;27;20041;-69
2022/03/09 03:47:03;;;;;;;6.78;5.03;;;;;;;2.37;46.88;101549.75;4999670;27;20020;-70
2022/03/09 03:49:28;;;;;;;5.55;5.05;;;;;;;2.32;47.15;101549.09;5017033;27;20031;-72
2022/03/09 03:51:54;;;;;;;7.22;5.65;;;;;;;2.28;46.64;101538.84;4997207;27;20344;-69
2022/03/09 03:54:19;;;;;;;5.88;4.93;;;;;;;2.24;47.75;101545.94;4982053;27;20040;-70
2022/03/09 03:56:46;;;;;;;5.85;5.05;;;;;;;2.16;47.96;101546.28;5015785;27;20024;-70
2022/03/09 03:59:12;;;;;;;6.55;5.30;;;;;;;2.19;47.39;101546.16;5018767;27;20104;-70
2022/03/09 04:01:37;;;;;;;7.00;5.25;;;;;;;2.31;46.77;101546.56;5009234;27;20101;-69
2022/03/09 04:04:03;;;;;;;7.57;5.20;;;;;;;2.32;46.60;101549.09;5019378;27;20025;-70
2022/03/09 04:06:29;;;;;;;5.85;5.25;;;;;;;2.33;46.36;101545.59;4996887;28;20039;-69
2022/03/09 04:08:54;;;;;;;5.72;5.15;;;;;;;2.32;45.81;101543.03;5017563;28;20032;-70
2022/03/09 04:11:20;;;;;;;5.70;5.20;;;;;;;2.45;45.55;101548.59;4987309;28;20032;-70
2022/03/09 04:13:45;;;;;;;6.03;5.25;;;;;;;2.42;45.52;101538.28;5017423;28;20033;-70
2022/03/09 04:16:11;;;;;;;5.60;5.10;;;;;;;2.58;45.73;101541.91;5003301;28;20891;-70
2022/03/09 04:18:36;;;;;;;5.82;5.32;;;;;;;2.40;45.47;101539.19;5019272;27;20039;-70
2022/03/09 04:21:02;;;;;;;7.88;5.40;;;;;;;2.43;45.08;101542.59;5016611;27;20612;-71
2022/03/09 04:23:27;;;;;;;8.57;5.05;;;;;;;2.43;45.35;101543.44;4986883;27;20036;-70
2022/03/09 04:25:52;;;;;;;8.85;5.50;;;;;;;2.42;45.80;101548.72;5023237;27;20048;-71
2022/03/09 04:28:18;;;;;;;6.53;5.32;;;;;;;2.38;45.21;101551.47;5004290;27;21463;-70
2022/03/09 04:30:44;;;;;;;9.13;5.72;;;;;;;2.38;45.52;101554.09;5019166;27;20040;-71
2022/03/09 04:33:10;;;;;;;6.40;5.35;;;;;;;2.38;45.22;101537.53;4989368;27;21102;-70
2022/03/09 04:35:35;;;;;;;5.90;5.30;;;;;;;2.36;46.00;101542.84;4986346;27;20347;-69
2022/03/09 04:38:01;;;;;;;6.25;5.28;;;;;;;2.38;45.33;101534.94;5024966;27;20253;-70
2022/03/09 04:40:27;;;;;;;6.80;5.43;;;;;;;2.43;45.04;101534.75;4986260;27;20029;-69
2022/03/09 04:42:52;;;;;;;6.95;5.65;;;;;;;2.52;45.89;101536.97;5023088;27;20037;-69
2022/03/09 04:45:18;;;;;;;6.57;5.30;;;;;;;2.45;44.81;101541.59;5026918;27;20146;-71
2022/03/09 04:47:43;;;;;;;7.03;5.55;;;;;;;2.47;44.88;101545.00;5022369;27;20025;-70
2022/03/09 04:50:09;;;;;;;8.43;5.95;;;;;;;2.48;45.43;101545.84;5029150;27;20546;-70
2022/03/09 04:52:34;;;;;;;6.85;5.78;;;;;;;2.44;44.82;101549.50;5023632;27;20135;-70
2022/03/09 04:54:59;;;;;;;7.68;5.57;;;;;;;2.45;44.91;101553.81;5031479;27;20009;-69
2022/03/09 04:57:25;;;;;;;6.88;5.57;;;;;;;2.45;45.20;101551.22;5005915;27;20032;-69
2022/03/09 04:59:50;;;;;;;6.00;5.30;;;;;;;2.48;45.13;101551.06;5024222;27;20811;-69
2022/03/09 05:02:15;;;;;;;6.28;5.40;;;;;;;2.54;45.02;101540.38;5006894;27;20564;-71
2022/03/09 05:04:41;;;;;;;7.60;5.57;;;;;;;2.52;44.18;101539.56;5027509;27;20049;-69
2022/03/09 05:07:06;;;;;;;9.48;5.53;;;;;;;2.60;44.77;101539.28;5028870;27;21154;-69
2022/03/09 05:09:32;;;;;;;6.50;5.60;;;;;;;2.36;45.52;101542.84;5001250;27;20044;-69
2022/03/09 05:11:57;;;;;;;6.15;5.65;;;;;;;2.36;45.74;101553.28;5008134;27;20753;-70
2022/03/09 05:14:22;;;;;;;6.57;5.97;;;;;;;2.28;45.61;101552.75;5026467;27;20042;-70
2022/03/09 05:16:48;;;;;;;6.53;5.93;;;;;;;2.35;45.43;101556.78;5030123;27;20487;-69
2022/03/09 05:19:13;;;;;;;6.57;5.65;;;;;;;2.33;45.13;101550.81;5029316;27;20094;-70
2022/03/09 05:21:39;;;;;;;6.47;5.68;;;;;;;2.32;45.24;101545.66;5029618;27;20025;-71
2022/03/09 05:24:05;;;;;;;8.23;5.75;;;;;;;2.37;46.05;101556.75;5031205;27;20043;-70
2022/03/09 05:26:30;;;;;;;6.60;5.60;;;;;;;2.35;45.78;101567.25;5029201;27;20105;-71
2022/03/09 05:28:57;;;;;;;7.72;5.80;;;;;;;2.40;45.78;101562.69;5017242;27;20104;-71
2022/03/09 05:31:23;;;;;;;7.30;5.90;;;;;;;2.41;45.37;101571.38;5012662;27;20434;-70
2022/03/09 05:33:48;;;;;;;7.20;5.95;;;;;;;2.38;45.42;101569.75;5035456;27;20021;-71
2022/03/09 05:36:13;;;;;;;9.32;6.07;;;;;;;2.34;45.61;101568.19;5019005;27;20084;-70
2022/03/09 05:38:39;;;;;;;5.88;5.28;;;;;;;2.32;45.44;101570.00;5035566;27;20040;-69
2022/03/09 05:41:04;;;;;;;6.85;5.80;;;;;;;2.21;45.23;101560.00;5016111;27;20016;-70
2022/03/09 05:43:30;;;;;;;8.55;5.97;;;;;;;2.30;45.61;101566.59;5036150;27;20330;-71
2022/03/09 05:45:55;;;;;;;7.75;6.32;;;;;;;2.32;45.45;101566.53;5048787;27;21056;-71
2022/03/09 05:48:21;;;;;;;6.55;5.82;;;;;;;2.21;45.01;101570.44;5032871;27;20730;-70
2022/03/09 05:50:46;;;;;;;7.38;5.72;;;;;;;2.23;45.51;101562.56;5019326;27;20633;-70
2022/03/09 05:53:12;;;;;;;11.85;6.00;;;;;;;2.20;45.92;101573.09;5001971;27;21260;-71
2022/03/09 05:55:37;;;;;;;6.75;5.60;;;;;;;2.18;46.01;101569.72;5020725;27;20028;-70
2022/03/09 05:58:02;;;;;;;6.57;5.85;;;;;;;2.26;45.92;101579.84;5003132;27;20041;-70
2022/03/09 06:00:28;;;;;;;6.05;5.45;;;;;;;2.29;45.06;101588.41;5019738;27;20017;-70
2022/03/09 06:02:53;;;;;;;6.50;5.90;;;;;;;2.28;45.29;101586.69;5022232;27;20455;-70
2022/03/09 06:05:19;;;;;;;8.43;5.80;;;;;;;2.31;45.63;101596.19;5003251;27;20037;-70
2022/03/09 06:07:44;;;;;;;6.38;5.78;;;;;;;2.32;44.74;101584.81;4986817;27;20061;-69
2022/03/09 06:10:09;;;;;;;6.38;5.70;;;;;;;2.30;44.63;101590.13;4999647;27;20021;-71
2022/03/09 06:12:35;;;;;;;7.53;5.82;;;;;;;2.35;45.08;101588.16;5018783;27;20036;-69
2022/03/09 06:15:00;;;;;;;7.40;5.72;;;;;;;2.37;44.87;101588.94;4985832;27;20862;-69
2022/03/09 06:17:26;;;;;;;8.50;5.82;;;;;;;2.40;45.35;101588.81;5019673;27;20025;-70
2022/03/09 06:19:51;;;;;;;6.97;5.80;;;;;;;2.43;45.05;101592.22;5005212;27;20028;-69
2022/03/09 06:22:16;;;;;;;6.60;5.68;;;;;;;2.48;45.17;101598.09;4998780;27;20073;-70
2022/03/09 06:24:42;;;;;;;7.03;5.82;;;;;;;2.52;44.62;101589.22;5006684;27;20185;-71
2022/03/09 06:27:07;;;;;;;7.85;5.65;;;;;;;2.58;45.00;101583.72;5018294;27;20045;-70
2022/03/09 06:29:32;;;;;;;6.75;5.97;;;;;;;2.55;44.88;101583.84;5025841;27;20249;-69
2022/03/09 06:31:58;;;;;;;7.53;5.97;;;;;;;2.64;43.73;101593.09;5016411;27;20029;-70
2022/03/09 06:34:23;;;;;;;7.15;6.05;;;;;;;2.68;44.57;101587.66;5024553;27;21028;-71
2022/03/09 06:36:51;;;;;;;7.85;5.90;;;;;;;2.71;43.42;101591.94;4983379;27;20041;-70
2022/03/09 06:39:16;;;;;;;6.57;5.80;;;;;;;2.75;43.38;101596.09;5001035;27;20033;-69
2022/03/09 06:41:42;;;;;;;6.82;5.50;;;;;;;2.84;43.86;101600.09;4983361;27;20915;-69
2022/03/09 06:44:08;;;;;;;7.70;5.43;;;;;;;2.95;43.67;101595.25;5001454;27;20067;-69
2022/03/09 06:46:33;;;;;;;8.60;6.00;;;;;;;3.00;43.54;101605.50;4999151;27;20037;-69
2022/03/09 06:48:59;;;;;;;6.72;6.03;;;;;;;3.01;43.55;101591.50;5017314;27;20032;-69
2022/03/09 06:51:24;;;;;;;6.30;5.70;;;;;;;3.09;43.02;101599.88;5014589;27;20037;-69
2022/03/09 06:53:49;;;;;;;8.15;6.00;;;;;;;3.16;42.87;101610.91;5000315;27;20342;-68
2022/03/09 06:56:16;;;;;;;6.65;5.90;;;;;;;3.22;42.81;101601.03;5017147;27;20441;-68
2022/03/09 06:58:41;;;;;;;6.30;5.70;;;;;;;3.37;42.92;101609.97;5021802;27;20029;-70
2022/03/09 07:01:07;;;;;;;7.75;5.95;;;;;;;3.39;43.15;101617.75;4997705;27;20163;-69
2022/03/09 07:03:33;;;;;;;7.93;5.78;;;;;;;3.46;42.68;101618.31;5002194;27;20029;-72
2022/03/09 07:05:58;;;;;;;6.22;5.68;;;;;;;3.52;42.17;101613.63;5003469;27;21016;-70
2022/03/09 07:08:23;;;;;;;7.22;5.97;;;;;;;3.64;41.64;101609.63;5016362;27;20160;-70
2022/03/09 07:10:50;;;;;;;9.25;6.05;;;;;;;3.77;41.55;101621.22;5014878;27;20400;-68
2022/03/09 07:13:15;;;;;;;7.97;6.15;;;;;;;3.86;40.90;101609.47;5018170;27;20184;-69
2022/03/09 07:15:40;;;;;;;6.90;5.63;;;;;;;3.91;40.91;101614.50;5016362;27;20333;-71
2022/03/09 07:18:06;;;;;;;7.75;5.97;;;;;;;3.98;41.32;101615.91;4983110;27;20036;-69
2022/03/09 07:20:31;;;;;;;9.50;6.25;;;;;;;4.03;41.30;101620.91;5017650;27;21183;-72
2022/03/09 07:22:56;;;;;;;8.85;6.15;;;;;;;4.16;40.92;101623.78;5004127;27;20483;-68
2022/03/09 07:25:22;;;;;;;7.65;6.00;;;;;;;4.25;40.25;101629.44;5017029;27;20045;-70
2022/03/09 07:27:47;;;;;;;8.75;6.25;;;;;;;4.34;39.74;101633.38;5018288;27;20049;-70
2022/03/09 07:30:13;;;;;;;6.90;6.20;;;;;;;4.40;39.98;101638.34;4994779;27;20029;-70
2022/03/09 07:32:38;;;;;;;7.55;6.13;;;;;;;4.55;39.46;101633.28;4999033;27;20124;-70
2022/03/09 07:35:04;;;;;;;6.78;5.88;;;;;;;4.66;39.41;101633.59;4982704;27;20033;-70
2022/03/09 07:37:30;;;;;;;9.90;6.28;;;;;;;4.67;39.13;101639.66;5017043;27;20027;-71
2022/03/09 07:39:55;;;;;;;6.53;5.90;;;;;;;4.77;39.63;101648.78;5000502;27;20032;-69
2022/03/09 07:42:20;;;;;;;9.00;5.95;;;;;;;4.87;38.95;101651.81;5014291;27;20017;-70
2022/03/09 07:44:46;;;;;;;6.95;6.15;;;;;;;4.93;39.48;101641.81;5017424;27;21059;-71
2022/03/09 07:47:11;;;;;;;10.13;5.80;;;;;;;4.98;38.69;101639.81;4998400;27;20101;-69
2022/03/09 07:49:37;;;;;;;11.18;6.45;;;;;;;5.02;39.43;101635.28;5021457;27;20919;-69
2022/03/09 07:52:04;;;;;;;8.10;5.97;;;;;;;5.05;38.82;101637.75;4994090;27;20021;-69
2022/03/09 07:54:29;;;;;;;7.15;5.95;;;;;;;5.10;37.51;101640.97;5015537;27;20035;-70
2022/03/09 07:56:55;;;;;;;8.00;6.00;;;;;;;5.21;37.35;101644.81;5019224;27;20688;-70
2022/03/09 07:59:20;;;;;;;5.93;5.32;;;;;;;5.22;38.01;101641.25;4982724;27;20702;-70
2022/03/09 08:01:46;;;;;;;6.63;5.75;;;;;;;5.33;37.49;101646.81;5016517;27;21002;-70
2022/03/09 08:04:11;;;;;;;6.65;5.97;;;;;;;5.39;37.67;101648.28;5017321;27;20032;-70
2022/03/09 08:06:40;;;;;;;7.82;5.80;;;;;;;5.53;37.30;101645.75;5024280;27;20485;-72
2022/03/09 08:09:06;;;;;;;7.00;6.05;;;;;;;5.64;36.85;101645.16;5005394;28;20065;-70
2022/03/09 08:11:31;;;;;;;7.30;6.20;;;;;;;5.72;37.07;101648.22;4983996;27;20029;-70
2022/03/09 08:13:57;;;;;;;6.03;5.53;;;;;;;5.76;37.17;101652.38;5025286;27;20041;-70
2022/03/09 08:16:23;;;;;;;6.97;5.55;;;;;;;5.84;37.30;101650.19;5030761;27;21354;-70
2022/03/09 08:18:48;;;;;;;6.22;5.63;;;;;;;5.89;36.85;101652.56;5025186;28;20402;-69
2022/03/09 08:21:13;;;;;;;6.30;5.70;;;;;;;6.07;36.37;101642.84;5023492;27;20246;-71
2022/03/09 08:23:39;;;;;;;7.38;6.20;;;;;;;6.16;35.96;101650.25;5024835;28;20041;-69
2022/03/09 08:26:04;;;;;;;7.95;5.93;;;;;;;6.16;36.29;101649.38;5009166;28;20041;-71
2022/03/09 08:28:29;;;;;;;8.90;6.13;;;;;;;6.31;35.61;101658.19;5023768;27;20582;-69
2022/03/09 08:30:55;;;;;;;8.25;6.13;;;;;;;6.36;35.61;101657.00;4996482;27;20113;-71
2022/03/09 08:33:21;;;;;;;9.50;5.70;;;;;;;6.36;35.37;101662.25;5006459;28;20109;-70
2022/03/09 08:35:46;;;;;;;6.97;5.78;;;;;;;6.54;36.67;101664.75;5029026;27;20135;-70
2022/03/09 08:38:12;;;;;;;6.70;6.00;;;;;;;6.67;34.90;101664.91;5008151;28;20384;-69
2022/03/09 08:40:37;;;;;;;7.85;6.03;;;;;;;6.63;35.16;101673.94;5018766;27;20028;-69
2022/03/09 08:43:02;;;;;;;7.05;6.35;;;;;;;6.63;34.83;101673.94;5008267;28;20013;-68
2022/03/09 08:45:28;;;;;;;6.50;5.90;;;;;;;6.63;35.15;101676.56;5023054;27;20037;-69
2022/03/09 08:47:53;;;;;;;7.20;6.50;;;;;;;6.76;34.13;101679.31;5037575;28;20436;-69
2022/03/09 08:50:19;;;;;;;7.50;6.13;;;;;;;6.80;34.85;101673.78;5004454;27;20025;-73
2022/03/09 08:52:44;;;;;;;9.35;5.88;;;;;;;7.07;33.97;101685.41;5046920;28;20086;-71
2022/03/09 08:55:09;;;;;;;9.40;6.07;;;;;;;7.22;34.18;101677.44;5012066;27;20294;-71
2022/03/09 08:57:35;;;;;;;9.23;6.07;;;;;;;7.55;33.64;101667.59;5029039;28;20020;-70
2022/03/09 09:00:04;;;;;;;6.25;5.75;;;;;;;7.74;33.77;101672.56;5035662;27;20584;-71
2022/03/09 09:02:30;;;;;;;8.23;5.78;;;;;;;8.12;33.22;101676.38;5029011;27;20020;-71
2022/03/09 09:04:56;;;;;;;7.80;6.10;;;;;;;8.42;32.98;101678.84;4996771;27;20047;-71
2022/03/09 09:07:22;;;;;;;8.07;6.65;;;;;;;8.68;32.92;101673.66;5032877;27;20847;-71
2022/03/09 09:09:47;;;;;;;7.88;6.45;;;;;;;8.90;31.97;101679.22;5017158;27;20013;-70
2022/03/09 09:12:13;;;;;;;6.72;6.13;;;;;;;9.25;31.37;101673.34;5030471;27;20059;-71
2022/03/09 09:14:38;;;;;;;8.55;6.25;;;;;;;9.46;30.86;101675.44;5038722;27;20021;-71
2022/03/09 09:17:03;;;;;;;8.60;7.07;;;;;;;9.87;31.87;101671.69;5033422;27;20025;-70
2022/03/09 09:19:29;;;;;;;6.70;6.10;;;;;;;9.96;30.35;101676.31;5017019;27;20503;-70
2022/03/09 09:21:54;;;;;;;7.38;6.63;;;;;;;10.30;30.97;101673.03;5029657;27;20952;-71
2022/03/09 09:24:20;;;;;;;7.07;6.38;;;;;;;10.39;30.22;101675.06;5019444;27;20029;-71
2022/03/09 09:26:45;;;;;;;6.75;5.97;;;;;;;10.87;29.21;101674.16;5012391;27;20029;-71
2022/03/09 09:29:10;;;;;;;6.90;6.20;;;;;;;11.61;28.60;101676.41;5038556;27;20055;-71
2022/03/09 09:31:36;;;;;;;8.75;6.82;;;;;;;11.63;28.28;101677.16;5016623;27;20477;-70
2022/03/09 09:34:02;;;;;;;7.85;6.57;;;;;;;11.67;27.47;101675.94;5018054;27;20025;-70
2022/03/09 09:36:28;;;;;;;7.00;6.10;;;;;;;11.62;27.68;101687.84;5019639;27;20417;-71
2022/03/09 09:38:53;;;;;;;7.10;6.40;;;;;;;11.81;27.24;101674.00;5000515;27;20744;-70
2022/03/09 09:41:24;;;;;;;7.07;6.30;;;;;;;12.31;27.49;101670.91;5014315;27;20181;-71
2022/03/09 09:43:49;;;;;;;7.80;7.00;;;;;;;12.64;26.59;101667.31;5034226;27;21252;-70
2022/03/09 09:46:15;;;;;;;7.45;6.75;;;;;;;13.00;26.83;101672.31;5039189;27;20032;-71
2022/03/09 09:48:41;;;;;;;11.68;9.20;;;;;;;13.28;26.37;101660.16;5017436;27;20032;-71
2022/03/09 09:51:08;;;;;;;6.97;6.38;;;;;;;13.23;25.45;101657.06;5030523;27;20021;-71
2022/03/09 09:53:35;;;;;;;7.25;6.55;;;;;;;13.72;24.48;101658.16;5025908;27;20921;-71
2022/03/09 09:56:01;;;;;;;7.53;6.63;;;;;;;13.99;24.07;101659.34;5003998;27;20893;-71
2022/03/09 09:58:28;;;;;;;8.35;7.55;;;;;;;13.97;24.90;101663.94;5003922;27;20037;-70
2022/03/09 10:00:54;;;;;;;6.95;6.35;;;;;;;13.98;24.60;101646.19;5016430;27;20021;-70
2022/03/09 10:03:19;;;;;;;7.22;6.60;;;;;;;13.81;24.00;101666.31;5026366;27;20056;-70
2022/03/09 10:05:45;;;;;;;7.72;7.03;;;;;;;13.36;24.33;101656.88;5022195;27;20067;-72
2022/03/09 10:08:13;;;;;;;7.72;7.03;;;;;;;13.83;24.26;101667.00;5024249;27;20078;-70
2022/03/09 10:10:43;;;;;;;7.60;6.90;;;;;;;13.76;24.41;101655.22;5000542;27;20964;-70
2022/03/09 10:13:28;;;;;;;7.60;6.90;;;;;;;14.01;23.20;101654.72;5007266;27;20037;-70
2022/03/09 10:16:18;;;;;;;7.80;7.00;;;;;;;14.85;22.84;101660.53;5019443;27;20032;-70
2022/03/09 10:18:50;;;;;;;7.20;6.60;;;;;;;15.56;22.35;101654.72;5020173;27;20037;-71
2022/03/09 10:21:37;;;;;;;9.05;6.85;;;;;;;15.15;22.18;101650.66;5027478;27;20780;-71
2022/03/09 10:24:06;;;;;;;10.68;7.32;;;;;;;14.96;22.42;101651.53;5014233;27;20025;-71
2022/03/09 10:26:42;;;;;;;10.02;7.45;;;;;;;15.45;22.12;101652.25;5035337;27;20082;-71
2022/03/09 10:29:11;;;;;;;10.50;7.43;;;;;;;15.92;21.50;101651.31;5031853;27;20080;-71
2022/03/09 10:31:38;;;;;;;7.75;7.05;;;;;;;16.69;20.84;101654.41;5030916;27;20039;-70
2022/03/09 10:34:09;;;;;;;9.82;7.35;;;;;;;16.38;21.00;101659.31;5036949;27;20086;-71
2022/03/09 10:36:35;;;;;;;11.60;7.00;;;;;;;16.33;21.98;101651.78;5036042;27;21325;-70
2022/03/09 10:39:14;;;;;;;11.63;7.32;;;;;;;16.65;20.73;101651.22;5022486;27;20025;-71
2022/03/09 10:41:39;;;;;;;8.02;7.25;;;;;;;16.07;21.27;101651.66;5034263;27;20855;-70
2022/03/09 10:44:05;;;;;;;9.88;7.05;;;;;;;16.56;21.01;101649.47;5035949;27;20035;-74
2022/03/09 10:46:47;;;;;;;8.02;7.30;;;;;;;17.05;20.44;101651.72;5020857;27;20036;-70
2022/03/09 10:49:14;;;;;;;8.00;7.10;;;;;;;17.28;19.90;101648.50;5039718;27;20364;-72
2022/03/09 10:51:42;;;;;;;11.88;7.38;;;;;;;17.70;19.64;101642.34;5017165;27;20029;-71
2022/03/09 10:54:27;;;;;;;8.32;6.95;;;;;;;17.92;19.58;101634.72;5004144;27;20028;-71
2022/03/09 10:57:08;;;;;;;7.50;6.78;;;;;;;17.23;21.06;101626.72;5023728;27;21137;-71
2022/03/09 10:59:48;;;;;;;7.50;6.78;;;;;;;17.78;20.61;101626.31;5020703;27;20064;-70
2022/03/09 11:02:15;;;;;;;8.38;7.47;;;;;;;18.50;20.06;101619.56;5015066;27;20075;-72
2022/03/09 11:04:40;;;;;;;7.78;7.03;;;;;;;18.95;18.88;101617.38;5022402;27;20381;-73
2022/03/09 11:07:06;;;;;;;7.75;6.85;;;;;;;18.80;18.22;101610.00;5006350;27;20908;-71
2022/03/09 11:09:31;;;;;;;8.02;7.32;;;;;;;18.34;18.76;101615.88;5032993;27;20033;-72
2022/03/09 11:11:57;;;;;;;7.82;6.97;;;;;;;18.73;18.10;101602.78;5027680;27;20516;-73
2022/03/09 11:14:26;;;;;;;7.65;6.95;;;;;;;19.33;18.40;101610.41;5040260;27;20037;-71
2022/03/09 11:16:52;;;;;;;7.97;7.15;;;;;;;19.24;17.47;101600.69;5003493;27;20065;-71
2022/03/09 11:19:18;;;;;;;8.05;7.25;;;;;;;19.68;18.56;101592.09;5021524;27;21364;-72
2022/03/09 11:21:43;;;;;;;8.07;7.25;;;;;;;20.10;17.16;101594.59;5022253;27;20029;-71
2022/03/09 11:24:14;;;;;;;8.80;7.03;;;;;;;19.58;16.47;101591.50;5024727;27;20099;-71
2022/03/09 11:26:42;;;;;;;8.18;7.18;;;;;;;19.28;17.13;101587.78;5024340;27;20819;-72
2022/03/09 11:29:09;;;;;;;7.57;6.97;;;;;;;20.19;16.84;101588.13;5040974;27;20044;-72